Aérodrome :
LOGIN :

S'inscrire | Disclaimer

   EN    FR    IT 

 










Légende :    VFR   VFR Marginal   IFR   IFR Intensif   IFR Très Intensif
Visi : 
Plafond : 
>= 8 km
>= 3000ft
5 à 8 km
1000 à 3000 ft
1500m à 5 km
500 à 1000 ft
800 à 1500m
200 à 500 ft
< 800m
< 200 ft
Symboles :   Orages  Brouillard  Fortes neiges  Fortes précipitations  Vent > 20 kt
SIGMETs :   Divers  Orages  Givrage  Turbulence  Onde Orograph.  Cendres Volcan.







- Altitude de l'aérodrome : 1017 ft
- Voir les cartes d'approche


LFSL - Brive Souillac

DERNIER METAR :
  • 181000Z AUTO 13011KT CAVOK 06/02 Q1019 NOSIG

METARs EXPIRÉS :
  • 180930Z AUTO 13011KT CAVOK 06/02 Q1019 NOSIG
  • 180900Z AUTO 13009KT CAVOK 05/01 Q1019 NOSIG
  • 180830Z AUTO 14007KT 110V170 CAVOK 04/01 Q1019 NOSIG
  • 180800Z AUTO 15006KT CAVOK 03/00 Q1020 NOSIG
  • 180730Z AUTO 14006KT 110V170 CAVOK 03/00 Q1020 NOSIG

TAF TAF LFSL
Valide du 18 à 09h jusqu'au 18 à 18h UTC


180800Z 1809/1818 14008KT CAVOK
BECMG 1812/1814 15014KT
TEMPO 1814/1818 15016G28KT
Pas de NOTAMs connus pour ce terrain.
2 SIGMETs publiés pour la FIR Bordeaux (LFBB) :
 
Turbulence forte
LFBB SIGMET 3 VALID 181100/181300 LFPW
LFBB BORDEAUX FIR/UIR SEV TURB FCST WI N4345 E00245 - N4300 E00230 - N4330 E00130 - N4400 E00200 - N4345 E00245 SFC/FL040 STNR NC=
Turbulence forte
LFBB SIGMET 2 VALID 180800/181200 LFPW
LFBB BORDEAUX FIR/UIR SEV TURB FCST WI N4245 E00000 - N4300 W00145 - N4330 W00145 - N4315 E00000 - N4245 E00000 SFC/FL100 STNR NC=



MET'MAP, la Météo Aéronautique d'un coup d'oeil ! - Copyright ORBIFLY Décembre 2007 - Disclaimer

ORBIFLY MET'MAP TEAM :

Programmation & Développement : Alexandra Zaïnal
Conception & Développement : Baudouin d'Aumeries
Co-Programmation & Développement : Marc-Olivier Méhu
Soutien technique & logistique : Manuel Goepfert

Contact : metmap@orbifly.com




SOURCES & CREDITS :

   NOAA